createdAt,value
2023-05-24T00:00:48.810Z,8.70
2023-05-24T00:04:53.183Z,8.60
2023-05-24T00:08:56.092Z,8.60
2023-05-24T00:12:58.930Z,8.60
2023-05-24T00:17:01.804Z,8.60
2023-05-24T00:21:06.232Z,8.50
2023-05-24T00:25:09.579Z,8.50
2023-05-24T00:29:12.427Z,8.50
2023-05-24T00:33:15.272Z,8.50
2023-05-24T00:37:19.433Z,8.50
2023-05-24T00:41:22.313Z,8.50
2023-05-24T00:45:25.140Z,8.40
2023-05-24T00:49:28.138Z,8.40
2023-05-24T00:53:32.897Z,8.40
2023-05-24T00:57:36.900Z,8.40
2023-05-24T01:01:41.883Z,8.40
2023-05-24T01:05:44.812Z,8.30
2023-05-24T01:09:56.884Z,8.30
2023-05-24T01:14:05.070Z,8.30
2023-05-24T01:18:12.667Z,8.30
2023-05-24T01:22:24.408Z,8.20
2023-05-24T01:26:39.107Z,8.20
2023-05-24T01:30:43.833Z,8.20
2023-05-24T01:34:46.847Z,8.20
2023-05-24T01:38:50.294Z,8.10
2023-05-24T01:42:55.507Z,8.10
2023-05-24T01:47:03.301Z,8.10
2023-05-24T01:51:07.727Z,8.10
2023-05-24T01:55:10.721Z,8.10
2023-05-24T01:59:14.077Z,8.10
2023-05-24T02:03:18.325Z,8.10
2023-05-24T02:07:21.197Z,8.20
2023-05-24T02:11:24.021Z,8.20
2023-05-24T02:15:30.537Z,8.20
2023-05-24T02:19:36.923Z,8.20
2023-05-24T02:23:39.746Z,8.20
2023-05-24T02:27:47.025Z,8.20
2023-05-24T02:31:52.041Z,8.20
2023-05-24T02:35:56.291Z,8.30
2023-05-24T02:39:59.105Z,8.30
2023-05-24T02:44:01.939Z,8.30
2023-05-24T02:48:04.922Z,8.40
2023-05-24T02:52:09.318Z,8.40
2023-05-24T02:56:13.799Z,8.40
2023-05-24T03:00:18.545Z,8.40
2023-05-24T03:04:21.402Z,8.40
2023-05-24T03:08:25.606Z,8.40
2023-05-24T03:12:28.447Z,8.40
2023-05-24T03:16:32.091Z,8.40
2023-05-24T03:20:35.089Z,8.40
2023-05-24T03:24:40.172Z,8.50
2023-05-24T03:28:42.996Z,8.50
2023-05-24T03:32:46.023Z,8.50
2023-05-24T03:36:49.005Z,8.50
2023-05-24T03:40:53.332Z,8.50
2023-05-24T03:44:56.364Z,8.50
2023-05-24T03:48:59.461Z,8.50
2023-05-24T03:53:02.594Z,8.50
2023-05-24T03:57:07.483Z,8.50
2023-05-24T04:01:22.005Z,8.60
2023-05-24T04:05:32.552Z,8.60
2023-05-24T04:09:35.621Z,8.60
2023-05-24T04:13:39.960Z,8.60
2023-05-24T04:17:43.833Z,8.70
2023-05-24T04:21:47.023Z,8.70
2023-05-24T04:25:50.193Z,8.70
2023-05-24T04:29:54.673Z,8.80
2023-05-24T04:33:59.147Z,8.80
2023-05-24T04:38:02.152Z,8.80
2023-05-24T04:42:05.466Z,8.90
2023-05-24T04:46:10.025Z,8.90
2023-05-24T04:50:13.172Z,9.00
2023-05-24T04:54:18.147Z,9.00
2023-05-24T04:58:21.214Z,9.10
2023-05-24T05:02:26.563Z,9.20
2023-05-24T05:06:29.584Z,9.20
2023-05-24T05:10:32.610Z,9.30
2023-05-24T05:14:35.784Z,9.30
2023-05-24T05:18:42.892Z,9.40
2023-05-24T05:22:50.672Z,9.40
2023-05-24T05:26:53.881Z,9.50
2023-05-24T05:30:57.088Z,9.50
2023-05-24T05:35:01.478Z,9.60
2023-05-24T05:39:04.628Z,9.70
2023-05-24T05:43:08.541Z,9.80
2023-05-24T05:47:12.137Z,9.80
2023-05-24T05:51:16.572Z,10.00
2023-05-24T05:55:19.699Z,10.00
2023-05-24T05:59:22.678Z,10.10
2023-05-24T06:03:25.919Z,10.20
2023-05-24T06:07:30.683Z,10.30
2023-05-24T06:11:33.867Z,10.40
2023-05-24T06:15:38.122Z,10.50
2023-05-24T06:19:41.191Z,10.60
2023-05-24T06:23:45.578Z,10.70
2023-05-24T06:27:48.808Z,10.80
2023-05-24T06:31:53.976Z,11.00
2023-05-24T06:35:57.150Z,11.10
2023-05-24T06:40:01.543Z,11.20
2023-05-24T06:44:04.755Z,11.40
2023-05-24T06:48:08.222Z,11.50
2023-05-24T06:52:11.533Z,11.60
2023-05-24T06:56:16.764Z,11.70
2023-05-24T07:00:20.542Z,11.80
2023-05-24T07:04:24.301Z,11.90
2023-05-24T07:08:27.602Z,12.00
2023-05-24T07:12:32.553Z,12.00
2023-05-24T07:16:35.623Z,12.00
2023-05-24T07:20:38.870Z,12.00
2023-05-24T07:24:41.900Z,12.00
2023-05-24T07:28:46.448Z,12.10
2023-05-24T07:32:49.636Z,12.10
2023-05-24T07:36:52.726Z,12.10
2023-05-24T07:40:55.764Z,12.20
2023-05-24T07:45:00.121Z,12.20
2023-05-24T07:49:03.118Z,12.30
2023-05-24T07:53:07.322Z,12.30
2023-05-24T07:57:10.608Z,12.40
2023-05-24T08:01:15.806Z,12.40
2023-05-24T08:05:19.030Z,12.30
2023-05-24T08:09:22.657Z,12.30
2023-05-24T08:13:25.682Z,12.20
2023-05-24T08:17:30.885Z,12.20
2023-05-24T08:21:34.895Z,12.10
2023-05-24T08:25:38.073Z,12.10
2023-05-24T08:29:41.606Z,12.00
2023-05-24T08:33:50.258Z,12.00
2023-05-24T08:37:53.358Z,12.00
2023-05-24T08:42:08.495Z,12.00
2023-05-24T08:46:15.255Z,12.00
2023-05-24T08:50:20.649Z,12.00
2023-05-24T08:54:23.948Z,12.00
2023-05-24T08:58:27.293Z,12.00
2023-05-24T09:02:31.446Z,12.00
2023-05-24T09:06:36.078Z,12.00
2023-05-24T09:10:52.818Z,12.00
2023-05-24T09:14:58.559Z,12.00
2023-05-24T09:19:01.724Z,12.00
2023-05-24T09:23:07.618Z,12.10
2023-05-24T09:27:10.975Z,12.10
2023-05-24T09:31:14.114Z,12.10
2023-05-24T09:35:17.279Z,12.10
2023-05-24T09:39:22.816Z,12.10
2023-05-24T09:43:26.583Z,12.20
2023-05-24T09:47:30.842Z,12.20
2023-05-24T09:51:37.675Z,12.20
2023-05-24T09:55:42.072Z,12.20
2023-05-24T09:59:45.330Z,12.20
2023-05-24T10:03:55.219Z,12.20
2023-05-24T10:07:59.610Z,12.20
2023-05-24T10:12:08.887Z,12.20
2023-05-24T10:16:12.046Z,12.20
2023-05-24T10:20:15.560Z,12.20
2023-05-24T10:24:22.856Z,12.20
2023-05-24T10:28:28.506Z,12.20
2023-05-24T10:32:35.008Z,12.20
2023-05-24T10:36:40.616Z,12.20
2023-05-24T10:40:44.342Z,12.20
2023-05-24T10:44:48.706Z,12.20
2023-05-24T10:49:01.650Z,12.30
2023-05-24T10:53:13.855Z,12.30
2023-05-24T10:57:24.487Z,12.30
2023-05-24T11:01:29.789Z,12.40
2023-05-24T11:05:37.282Z,12.50
2023-05-24T11:09:46.176Z,12.50
2023-05-24T11:13:49.514Z,12.60
2023-05-24T11:18:16.169Z,12.60
2023-05-24T11:22:21.131Z,12.60
2023-05-24T11:26:24.282Z,12.70
2023-05-24T11:30:27.345Z,12.80
2023-05-24T11:34:33.045Z,12.90
2023-05-24T11:38:36.735Z,13.00
2023-05-24T11:42:39.790Z,13.20
2023-05-24T11:46:44.930Z,13.30
2023-05-24T11:50:50.385Z,13.50
2023-05-24T11:54:55.057Z,13.70
2023-05-24T11:59:06.124Z,13.90
2023-05-24T12:03:10.425Z,14.10
2023-05-24T12:07:14.745Z,14.20
2023-05-24T12:11:17.924Z,14.30
2023-05-24T12:15:22.287Z,14.40
2023-05-24T12:23:37.329Z,14.50
2023-05-24T12:27:47.827Z,14.60
2023-05-24T12:31:51.445Z,14.80
2023-05-24T12:35:56.368Z,14.90
2023-05-24T12:40:01.606Z,15.00
2023-05-24T12:44:04.715Z,15.00
2023-05-24T12:48:08.817Z,15.00
2023-05-24T12:52:12.643Z,14.90
2023-05-24T12:56:17.210Z,14.80
2023-05-24T13:00:21.276Z,14.70
2023-05-24T13:04:26.394Z,14.60
2023-05-24T13:08:30.237Z,14.60
2023-05-24T13:12:34.714Z,14.50
2023-05-24T13:16:37.748Z,14.50
2023-05-24T13:20:41.049Z,14.40
2023-05-24T13:24:44.438Z,14.40
2023-05-24T13:29:15.216Z,14.40
2023-05-24T13:33:11.804Z,14.50
2023-05-24T13:37:16.356Z,14.50
2023-05-24T13:41:20.048Z,14.50
2023-05-24T13:45:24.480Z,14.60
2023-05-24T13:49:27.774Z,14.70
2023-05-24T13:53:31.170Z,14.80
2023-05-24T13:57:50.369Z,14.90
2023-05-24T14:01:56.162Z,15.00
2023-05-24T14:05:59.311Z,15.10
2023-05-24T14:10:02.821Z,15.20
2023-05-24T14:18:13.396Z,15.20
2023-05-24T14:22:16.487Z,15.30
2023-05-24T14:26:20.237Z,15.30
2023-05-24T14:30:23.348Z,15.40
2023-05-24T14:34:27.732Z,15.50
2023-05-24T14:38:30.792Z,15.50
2023-05-24T14:42:33.815Z,15.60
2023-05-24T14:46:36.968Z,15.70
2023-05-24T14:50:42.471Z,15.80
2023-05-24T14:54:45.868Z,15.90
2023-05-24T14:58:48.879Z,16.00
2023-05-24T15:02:52.159Z,16.10
2023-05-24T15:06:57.051Z,16.10
2023-05-24T15:11:00.179Z,16.20
2023-05-24T15:15:03.235Z,16.20
2023-05-24T15:19:06.296Z,16.20
2023-05-24T15:23:11.166Z,16.20
2023-05-24T15:27:14.215Z,16.10
2023-05-24T15:31:17.320Z,16.10
2023-05-24T15:35:20.312Z,16.10
2023-05-24T15:39:24.675Z,16.00
2023-05-24T15:43:27.765Z,16.00
2023-05-24T15:47:36.320Z,16.00
2023-05-24T15:55:47.332Z,16.00
2023-05-24T15:59:50.688Z,16.00
2023-05-24T16:03:53.987Z,16.00
2023-05-24T16:07:57.258Z,16.00
2023-05-24T16:12:01.696Z,16.00
2023-05-24T16:16:04.728Z,16.00
2023-05-24T16:20:08.742Z,16.00
2023-05-24T16:24:11.761Z,16.00
2023-05-24T16:28:16.148Z,16.10
2023-05-24T16:32:19.145Z,16.20
2023-05-24T16:36:22.242Z,16.20
2023-05-24T16:40:25.261Z,16.20
2023-05-24T16:44:29.704Z,16.20
2023-05-24T16:48:32.729Z,16.20
2023-05-24T16:52:35.781Z,16.10
2023-05-24T16:56:38.887Z,16.10
2023-05-24T17:00:43.440Z,16.10
2023-05-24T17:04:46.604Z,16.10
2023-05-24T17:08:49.645Z,16.10
2023-05-24T17:12:53.307Z,16.20
2023-05-24T17:16:57.657Z,16.20
2023-05-24T17:21:01.586Z,16.30
2023-05-24T17:25:04.778Z,16.40
2023-05-24T17:29:07.776Z,16.40
2023-05-24T17:33:12.248Z,16.40
2023-05-24T17:37:15.323Z,16.30
2023-05-24T17:41:18.354Z,16.30
2023-05-24T17:45:21.368Z,16.30
2023-05-24T17:49:26.483Z,16.20
2023-05-24T17:53:32.164Z,16.10
2023-05-24T17:57:35.510Z,16.00
2023-05-24T18:01:38.540Z,16.00
2023-05-24T18:05:43.180Z,16.00
2023-05-24T18:09:46.317Z,15.90
2023-05-24T18:13:49.309Z,15.90
2023-05-24T18:17:52.298Z,15.90
2023-05-24T18:21:56.758Z,15.80
2023-05-24T18:26:01.177Z,15.80
2023-05-24T18:30:07.849Z,15.70
2023-05-24T18:34:10.992Z,15.60
2023-05-24T18:38:15.536Z,15.50
2023-05-24T18:42:18.600Z,15.40
2023-05-24T18:46:21.694Z,15.30
2023-05-24T18:50:25.034Z,15.20
2023-05-24T18:54:29.590Z,15.10
2023-05-24T18:58:32.577Z,15.00
2023-05-24T19:02:38.477Z,14.90
2023-05-24T19:06:42.040Z,14.80
2023-05-24T19:10:46.540Z,14.80
2023-05-24T19:14:49.627Z,14.70
2023-05-24T19:18:52.642Z,14.60
2023-05-24T19:22:57.114Z,14.50
2023-05-24T19:27:03.228Z,14.50
2023-05-24T19:31:06.592Z,14.40
2023-05-24T19:35:11.699Z,14.20
2023-05-24T19:39:14.692Z,14.10
2023-05-24T19:43:22.095Z,14.00
2023-05-24T19:47:25.091Z,13.90
2023-05-24T19:51:28.845Z,13.70
2023-05-24T19:55:32.597Z,13.60
2023-05-24T19:59:36.974Z,13.50
2023-05-24T20:03:40.028Z,13.40
2023-05-24T20:07:43.203Z,13.40
2023-05-24T20:11:46.411Z,13.20
2023-05-24T20:15:50.606Z,13.10
2023-05-24T20:19:53.709Z,13.10
2023-05-24T20:23:58.493Z,13.00
2023-05-24T20:28:01.886Z,13.00
2023-05-24T20:32:06.939Z,12.90
2023-05-24T20:36:10.049Z,12.90
2023-05-24T20:40:13.721Z,12.80
2023-05-24T20:44:16.867Z,12.80
2023-05-24T20:48:21.307Z,12.70
2023-05-24T20:52:24.137Z,12.50
2023-05-24T20:56:27.520Z,12.50
2023-05-24T21:00:30.554Z,12.40
2023-05-24T21:04:34.715Z,12.30
2023-05-24T21:08:38.485Z,12.20
2023-05-24T21:12:42.091Z,12.20
2023-05-24T21:16:45.159Z,12.10
2023-05-24T21:20:49.700Z,12.00
2023-05-24T21:24:52.993Z,11.90
2023-05-24T21:28:56.134Z,11.80
2023-05-24T21:32:59.216Z,11.70
2023-05-24T21:37:05.037Z,11.70
2023-05-24T21:41:07.962Z,11.60
2023-05-24T21:45:11.191Z,11.50
2023-05-24T21:49:14.074Z,11.40
2023-05-24T21:53:18.400Z,11.30
2023-05-24T21:57:21.397Z,11.30
2023-05-24T22:01:24.286Z,11.20
2023-05-24T22:05:28.061Z,11.20
2023-05-24T22:09:32.543Z,11.10
2023-05-24T22:13:35.551Z,11.00
2023-05-24T22:21:44.058Z,10.90
2023-05-24T22:25:48.242Z,10.80
2023-05-24T22:29:51.108Z,10.70
2023-05-24T22:33:54.111Z,10.70
2023-05-24T22:37:57.130Z,10.60
2023-05-24T22:42:01.734Z,10.50
2023-05-24T22:46:04.639Z,10.50
2023-05-24T22:50:08.027Z,10.40
2023-05-24T22:54:11.172Z,10.30
2023-05-24T22:58:15.611Z,10.30
2023-05-24T23:02:18.645Z,10.20
2023-05-24T23:06:21.503Z,10.20
2023-05-24T23:10:24.357Z,10.10
2023-05-24T23:14:30.433Z,10.10
2023-05-24T23:18:33.812Z,10.00
2023-05-24T23:22:37.670Z,10.00
2023-05-24T23:26:40.732Z,9.90
2023-05-24T23:30:45.131Z,9.80
2023-05-24T23:34:48.136Z,9.70
2023-05-24T23:38:50.978Z,9.60
2023-05-24T23:42:53.878Z,9.50
2023-05-24T23:46:58.355Z,9.50
2023-05-24T23:51:01.385Z,9.40
2023-05-24T23:55:04.687Z,9.40
2023-05-24T23:59:07.667Z,9.30
